Time;durP1;ratioP1;P1;durP2;ratioP2;P2;SDS_P1;SDS_P2;PMS_P1;PMS_P2;Temp;Humidity;BMP_temperature;BMP_pressure;BME280_temperature;BME280_humidity;BME280_pressure;Samples;Min_cycle;Max_cycle;Signal;HPM_P1;HPM_P2
2022/04/01 00:01:16;;;;;;;43.10;33.25;;;2.10;99.90;;;;;;5035643;28;20050;-85
2022/04/01 00:03:42;;;;;;;40.05;31.95;;;2.10;99.90;;;;;;5035263;28;20490;-85
2022/04/01 00:06:09;;;;;;;40.28;31.70;;;2.10;99.90;;;;;;5035873;28;20141;-86
2022/04/01 00:08:36;;;;;;;42.97;32.90;;;2.10;99.90;;;;;;5035078;28;20133;-85
2022/04/01 00:11:03;;;;;;;41.97;32.25;;;2.10;99.90;;;;;;5034766;28;20088;-85
2022/04/01 00:13:30;;;;;;;41.28;31.83;;;2.10;99.90;;;;;;5034595;28;20137;-84
2022/04/01 00:15:57;;;;;;;43.30;33.13;;;2.10;99.90;;;;;;5035053;28;20054;-85
2022/04/01 00:18:24;;;;;;;42.50;32.67;;;2.10;99.90;;;;;;5034989;28;20060;-85
2022/04/01 00:20:50;;;;;;;41.50;32.78;;;2.20;99.90;;;;;;5034701;28;20056;-85
2022/04/01 00:23:17;;;;;;;40.05;31.25;;;2.20;99.90;;;;;;5034746;28;20135;-85
2022/04/01 00:25:45;;;;;;;41.92;32.28;;;2.20;99.90;;;;;;5034921;28;20073;-85
2022/04/01 00:28:12;;;;;;;40.35;31.88;;;2.20;99.90;;;;;;5036838;28;20041;-85
2022/04/01 00:30:39;;;;;;;45.28;34.03;;;2.20;99.90;;;;;;5040363;28;20065;-85
2022/04/01 00:33:11;;;;;;;41.53;32.42;;;2.10;99.90;;;;;;5035977;28;20076;-84
2022/04/01 00:35:38;;;;;;;42.17;32.60;;;2.00;99.90;;;;;;5034426;28;20060;-85
2022/04/01 00:38:06;;;;;;;43.10;33.35;;;2.00;99.90;;;;;;5035692;28;20049;-85
2022/04/01 00:40:33;;;;;;;39.22;31.08;;;2.00;99.90;;;;;;5035386;28;20060;-85
2022/04/01 00:43:00;;;;;;;38.80;31.05;;;2.10;99.90;;;;;;5035608;28;20085;-85
2022/04/01 00:45:26;;;;;;;45.05;32.22;;;2.10;99.90;;;;;;5034464;28;20132;-85
2022/04/01 00:47:55;;;;;;;42.40;32.90;;;2.10;99.90;;;;;;5034349;28;20148;-85
2022/04/01 00:50:22;;;;;;;40.67;32.20;;;2.00;99.90;;;;;;5034123;28;20084;-85
2022/04/01 00:52:49;;;;;;;42.92;31.98;;;2.00;99.90;;;;;;5034013;28;20512;-85
2022/04/01 00:55:16;;;;;;;43.75;32.95;;;2.00;99.90;;;;;;5034083;28;20134;-85
2022/04/01 00:57:43;;;;;;;43.90;33.53;;;2.00;99.90;;;;;;5034288;28;20115;-85
2022/04/01 01:00:12;;;;;;;44.30;34.05;;;1.90;99.90;;;;;;5033905;28;20084;-85
2022/04/01 01:02:40;;;;;;;39.80;32.05;;;2.10;99.90;;;;;;5033583;28;20081;-85
2022/04/01 01:05:07;;;;;;;39.50;31.52;;;2.00;99.90;;;;;;5034024;28;20140;-85
2022/04/01 01:07:36;;;;;;;41.97;32.42;;;2.00;99.90;;;;;;5033795;28;20144;-85
2022/04/01 01:10:04;;;;;;;44.65;33.50;;;2.00;99.90;;;;;;5034816;28;20108;-85
2022/04/01 01:12:31;;;;;;;39.08;30.73;;;2.00;99.90;;;;;;5034966;28;20136;-84
2022/04/01 01:15:07;;;;;;;43.30;32.70;;;2.00;99.90;;;;;;5034893;28;20183;-85
2022/04/01 01:17:34;;;;;;;43.00;32.65;;;2.00;99.90;;;;;;5033620;28;20077;-85
2022/04/01 01:20:01;;;;;;;42.20;31.90;;;1.90;99.90;;;;;;5033729;28;20069;-84
2022/04/01 01:22:28;;;;;;;41.28;32.05;;;1.90;99.90;;;;;;5034808;28;20140;-85
2022/04/01 01:24:56;;;;;;;41.50;30.85;;;1.90;99.90;;;;;;5033751;28;20457;-85
2022/04/01 01:27:22;;;;;;;39.85;31.48;;;1.90;99.90;;;;;;5033489;28;20481;-85
2022/04/01 01:29:50;;;;;;;41.67;31.35;;;1.90;99.90;;;;;;5033385;28;20061;-85
2022/04/01 01:32:19;;;;;;;38.53;30.38;;;1.90;99.90;;;;;;5033282;28;20087;-85
2022/04/01 01:34:46;;;;;;;38.13;29.27;;;2.00;99.90;;;;;;5033217;28;20053;-85
2022/04/01 01:37:13;;;;;;;37.58;29.70;;;2.00;99.90;;;;;;5033534;28;20561;-84
2022/04/01 01:39:40;;;;;;;34.25;27.30;;;1.90;99.90;;;;;;5034354;28;20056;-85
2022/04/01 01:42:07;;;;;;;35.70;28.45;;;2.00;99.90;;;;;;5033189;28;20054;-84
2022/04/01 01:44:35;;;;;;;35.38;27.23;;;2.00;99.90;;;;;;5034111;28;20050;-85
2022/04/01 01:47:02;;;;;;;35.15;28.38;;;1.90;99.90;;;;;;5032425;28;20050;-85
2022/04/01 01:49:30;;;;;;;32.50;26.70;;;1.90;99.90;;;;;;5032758;28;20137;-84
2022/04/01 01:54:52;;;;;;;34.53;26.90;;;2.00;99.90;;;;;;5034069;28;20053;-85
2022/04/01 01:57:24;;;;;;;33.35;25.83;;;2.00;99.90;;;;;;5032909;28;20489;-85
2022/04/01 01:59:52;;;;;;;34.97;28.17;;;1.90;99.90;;;;;;5033906;28;20045;-84
2022/04/01 02:02:20;;;;;;;33.78;26.73;;;1.80;99.90;;;;;;5033463;28;20099;-85
2022/04/01 02:04:48;;;;;;;32.78;26.40;;;1.80;99.90;;;;;;5032352;28;20131;-85
2022/04/01 02:07:15;;;;;;;35.60;27.13;;;1.80;99.90;;;;;;5032387;28;20045;-85
2022/04/01 02:09:46;;;;;;;34.42;26.52;;;1.80;99.90;;;;;;5033374;28;20045;-85
2022/04/01 02:12:16;;;;;;;35.47;26.75;;;1.80;99.90;;;;;;5033303;28;20045;-85
2022/04/01 02:14:43;;;;;;;34.03;25.90;;;1.80;99.90;;;;;;5032402;28;20049;-84
2022/04/01 02:17:10;;;;;;;34.83;26.48;;;1.80;99.90;;;;;;5032495;28;20087;-85
2022/04/01 02:19:37;;;;;;;36.10;26.52;;;1.80;99.90;;;;;;5031990;28;20053;-84
2022/04/01 02:22:05;;;;;;;32.47;26.02;;;1.70;99.90;;;;;;5031986;28;20049;-85
2022/04/01 02:24:32;;;;;;;36.65;26.63;;;1.70;99.90;;;;;;5032069;28;20056;-85
2022/04/01 02:26:59;;;;;;;33.92;26.08;;;1.70;99.90;;;;;;5033054;28;20081;-85
2022/04/01 02:29:26;;;;;;;33.92;25.33;;;1.70;99.90;;;;;;5033159;28;20460;-85
2022/04/01 02:31:53;;;;;;;33.13;25.27;;;1.70;99.90;;;;;;5032241;28;20048;-85
2022/04/01 02:34:21;;;;;;;31.75;25.05;;;1.60;99.90;;;;;;5032057;28;20061;-85
2022/04/01 02:36:48;;;;;;;33.10;24.63;;;1.70;99.90;;;;;;5033659;28;20144;-85
2022/04/01 02:39:15;;;;;;;33.72;25.98;;;1.70;99.90;;;;;;5032083;28;20506;-85
2022/04/01 02:41:42;;;;;;;32.25;25.15;;;1.70;99.90;;;;;;5031646;28;20053;-85
2022/04/01 02:44:09;;;;;;;32.85;24.42;;;1.70;99.90;;;;;;5031733;28;20240;-85
2022/04/01 02:46:44;;;;;;;31.98;24.20;;;1.70;99.90;;;;;;5031814;28;20049;-85
2022/04/01 02:49:17;;;;;;;28.63;23.02;;;1.70;99.90;;;;;;5031907;28;20088;-85
2022/04/01 02:51:46;;;;;;;31.40;23.52;;;1.70;99.90;;;;;;5032607;28;20049;-85
2022/04/01 02:54:13;;;;;;;29.77;23.83;;;1.60;99.90;;;;;;5032910;28;20125;-85
2022/04/01 02:56:41;;;;;;;31.65;24.05;;;1.50;99.90;;;;;;5031542;28;20556;-85
2022/04/01 02:59:09;;;;;;;31.45;23.25;;;1.60;99.90;;;;;;5032436;28;20084;-85
2022/04/01 03:01:37;;;;;;;31.77;23.67;;;1.60;99.90;;;;;;5032590;28;20045;-85
2022/04/01 03:04:09;;;;;;;33.63;23.58;;;1.60;99.90;;;;;;5032712;28;20046;-85
2022/04/01 03:06:40;;;;;;;29.55;23.70;;;1.60;99.90;;;;;;5032673;28;20049;-85
2022/04/01 03:09:07;;;;;;;29.67;22.52;;;1.60;99.90;;;;;;5031865;28;20136;-84
2022/04/01 03:11:37;;;;;;;35.03;24.70;;;1.60;99.90;;;;;;5031337;28;20046;-85
2022/04/01 03:14:06;;;;;;;31.08;24.52;;;1.60;99.90;;;;;;5032648;28;20049;-85
2022/04/01 03:16:33;;;;;;;28.45;22.98;;;1.50;99.90;;;;;;5031330;28;20041;-85
2022/04/01 03:19:00;;;;;;;33.10;22.73;;;1.50;99.90;;;;;;5031288;28;20057;-85
2022/04/01 03:21:29;;;;;;;29.30;22.23;;;1.50;99.90;;;;;;5032800;28;20084;-85
2022/04/01 03:23:56;;;;;;;33.25;24.17;;;1.50;99.90;;;;;;5031551;28;20041;-84
2022/04/01 03:26:23;;;;;;;28.98;22.60;;;1.50;99.90;;;;;;5032590;28;20045;-84
2022/04/01 03:28:49;;;;;;;29.05;22.17;;;1.50;99.90;;;;;;5032626;28;20454;-85
2022/04/01 03:31:16;;;;;;;29.95;22.70;;;1.50;99.90;;;;;;5032445;28;20421;-85
2022/04/01 03:33:43;;;;;;;32.53;22.73;;;1.40;99.90;;;;;;5031447;28;20041;-85
2022/04/01 03:36:11;;;;;;;28.85;22.00;;;1.30;99.90;;;;;;5032565;28;20145;-85
2022/04/01 03:38:39;;;;;;;28.10;21.38;;;1.30;99.90;;;;;;5031532;28;20077;-85
2022/04/01 03:41:06;;;;;;;29.30;21.73;;;1.30;99.90;;;;;;5032651;28;20490;-85
2022/04/01 03:43:35;;;;;;;28.55;21.58;;;1.20;99.90;;;;;;5032453;28;20156;-85
2022/04/01 03:46:24;;;;;;;28.77;20.67;;;1.20;99.90;;;;;;5031365;28;20064;-85
2022/04/01 03:49:00;;;;;;;29.80;20.40;;;1.20;99.90;;;;;;5032577;28;20573;-85
2022/04/01 03:51:29;;;;;;;27.98;20.90;;;1.20;99.90;;;;;;5031824;28;20125;-85
2022/04/01 03:54:00;;;;;;;33.60;22.13;;;1.10;99.90;;;;;;5033198;28;20383;-85
2022/04/01 03:56:34;;;;;;;31.17;21.63;;;1.20;99.90;;;;;;5031373;28;20050;-85
2022/04/01 03:59:03;;;;;;;30.80;21.55;;;1.10;99.90;;;;;;5031678;28;20587;-85
2022/04/01 04:01:30;;;;;;;46.72;31.30;;;1.00;99.90;;;;;;5032206;28;20057;-85
2022/04/01 04:04:00;;;;;;;249.73;177.27;;;1.00;99.90;;;;;;5031195;28;20077;-85
2022/04/01 04:06:27;;;;;;;35.50;26.63;;;1.00;99.90;;;;;;5031376;28;20128;-86
2022/04/01 04:08:56;;;;;;;33.78;24.42;;;1.00;99.90;;;;;;5030919;28;20092;-85
2022/04/01 04:11:28;;;;;;;35.13;24.73;;;1.00;99.90;;;;;;5033411;28;20053;-86
2022/04/01 04:13:56;;;;;;;30.55;22.15;;;1.00;99.90;;;;;;5034871;28;20045;-86
2022/04/01 04:16:47;;;;;;;33.25;22.50;;;1.00;99.90;;;;;;5034775;28;20140;-86
2022/04/01 04:19:21;;;;;;;36.85;23.80;;;1.00;99.90;;;;;;5035822;28;20045;-86
2022/04/01 04:22:13;;;;;;;35.58;22.58;;;0.90;99.90;;;;;;5035760;28;20698;-86
2022/04/01 04:25:04;;;;;;;31.70;20.45;;;0.90;99.90;;;;;;5035024;28;20136;-86
2022/04/01 04:27:36;;;;;;;31.08;19.80;;;0.90;99.90;;;;;;5035134;28;20060;-86
2022/04/01 04:30:08;;;;;;;27.77;20.38;;;0.90;99.90;;;;;;5034611;28;20136;-86
2022/04/01 04:32:53;;;;;;;30.08;20.55;;;0.80;99.90;;;;;;5034919;28;20666;-87
2022/04/01 04:35:21;;;;;;;33.20;21.15;;;0.80;99.90;;;;;;5035753;28;20053;-87
2022/04/01 04:37:53;;;;;;;30.88;20.35;;;0.80;99.90;;;;;;5034650;28;20128;-86
2022/04/01 04:40:21;;;;;;;29.42;21.85;;;0.90;99.90;;;;;;5035539;28;20053;-87
2022/04/01 04:42:49;;;;;;;34.08;22.17;;;0.80;99.90;;;;;;5034488;28;20084;-88
2022/04/01 04:45:18;;;;;;;36.40;21.80;;;0.80;99.90;;;;;;5034678;28;20568;-87
2022/04/01 04:47:46;;;;;;;31.98;22.45;;;0.80;99.90;;;;;;5035517;28;20528;-87
2022/04/01 04:50:16;;;;;;;33.13;21.70;;;0.80;99.90;;;;;;5034462;28;20081;-88
2022/04/01 04:52:48;;;;;;;41.85;24.00;;;0.80;99.90;;;;;;5034454;28;20136;-88
2022/04/01 04:55:20;;;;;;;33.15;23.30;;;0.80;99.90;;;;;;5034688;28;20107;-88
2022/04/01 04:57:49;;;;;;;33.20;21.48;;;0.70;99.90;;;;;;5034515;28;20050;-88
2022/04/01 05:00:19;;;;;;;33.13;22.00;;;0.80;99.90;;;;;;5035177;28;20532;-88
2022/04/01 05:03:24;;;;;;;37.10;23.88;;;0.70;99.90;;;;;;5034905;28;20100;-88
2022/04/01 05:05:54;;;;;;;36.50;24.02;;;0.70;99.90;;;;;;5035788;28;20057;-88
2022/04/01 05:08:44;;;;;;;36.90;26.30;;;0.70;99.90;;;;;;5039746;28;20417;-89
2022/04/01 05:11:35;;;;;;;39.47;27.02;;;0.70;99.90;;;;;;5037830;28;20054;-89
2022/04/01 05:14:25;;;;;;;42.80;28.48;;;0.70;99.90;;;;;;5034570;28;20053;-90
2022/04/01 05:17:01;;;;;;;39.17;28.75;;;0.70;99.90;;;;;;5036391;28;20077;-89
2022/04/01 05:19:29;;;;;;;42.65;28.73;;;0.70;99.90;;;;;;5035445;28;20125;-89
2022/04/01 05:22:01;;;;;;;42.38;27.33;;;0.80;99.90;;;;;;5036729;28;20057;-88
2022/04/01 05:24:47;;;;;;;37.60;27.08;;;0.70;99.90;;;;;;5036993;28;20080;-88
2022/04/01 05:27:45;;;;;;;37.92;25.55;;;0.60;99.90;;;;;;5036238;28;20049;-89
2022/04/01 05:30:13;;;;;;;32.10;22.10;;;0.70;99.90;;;;;;5033790;28;20136;-89
2022/04/01 05:33:11;;;;;;;37.75;24.73;;;0.70;99.90;;;;;;5035567;28;20042;-89
2022/04/01 05:35:43;;;;;;;107.30;58.92;;;0.70;99.90;;;;;;5026869;28;20079;-89
2022/04/01 05:38:10;;;;;;;32.57;21.60;;;0.70;99.90;;;;;;5034122;28;20041;-89
2022/04/01 05:40:38;;;;;;;31.08;20.23;;;0.70;99.90;;;;;;5035013;28;20402;-90
2022/04/01 05:43:06;;;;;;;26.98;16.38;;;0.80;99.90;;;;;;5033886;28;20068;-89
2022/04/01 05:45:33;;;;;;;24.17;16.52;;;0.70;99.90;;;;;;5034338;28;20063;-89
2022/04/01 05:48:01;;;;;;;22.08;14.00;;;0.70;99.90;;;;;;5034921;28;20107;-89
2022/04/01 05:50:28;;;;;;;23.10;13.48;;;0.70;99.90;;;;;;5033552;28;20053;-89
2022/04/01 05:52:55;;;;;;;19.38;13.73;;;0.70;99.90;;;;;;5034944;28;20050;-89
2022/04/01 05:55:25;;;;;;;21.05;12.57;;;0.70;99.90;;;;;;5034635;28;20136;-88
2022/04/01 05:57:53;;;;;;;19.35;12.25;;;0.70;99.90;;;;;;5034654;28;20135;-87
2022/04/01 06:00:21;;;;;;;16.50;10.98;;;0.70;99.90;;;;;;5033841;28;20081;-89
2022/04/01 06:03:09;;;;;;;17.67;10.40;;;0.70;99.90;;;;;;5034017;28;20445;-89
2022/04/01 06:05:56;;;;;;;19.88;10.32;;;0.70;99.90;;;;;;5033629;28;20092;-88
2022/04/01 06:09:01;;;;;;;14.60;8.52;;;0.70;99.90;;;;;;5033834;28;20048;-88
2022/04/01 06:12:03;;;;;;;19.67;8.82;;;0.60;99.90;;;;;;5010881;28;20128;-88
2022/04/01 06:14:43;;;;;;;11.80;7.72;;;0.60;99.90;;;;;;5030902;28;20130;-88
2022/04/01 06:17:19;;;;;;;17.27;7.88;;;0.60;99.90;;;;;;5033738;28;20081;-88
2022/04/01 06:19:50;;;;;;;12.85;7.18;;;0.60;99.90;;;;;;5033555;28;20063;-89
2022/04/01 06:22:18;;;;;;;12.32;7.20;;;0.60;99.90;;;;;;5036966;28;20041;-88
2022/04/01 06:24:51;;;;;;;10.02;6.97;;;0.50;99.90;;;;;;5037055;28;20486;-89
2022/04/01 06:27:27;;;;;;;9.65;7.18;;;0.50;99.90;;;;;;5033165;28;20088;-89
2022/04/01 06:30:08;;;;;;;11.50;7.60;;;0.50;99.90;;;;;;5033896;28;20494;-88
2022/04/01 06:32:56;;;;;;;16.33;8.35;;;0.40;99.90;;;;;;5032779;28;20141;-87
2022/04/01 06:35:28;;;;;;;13.40;8.65;;;0.30;99.90;;;;;;5033056;28;20050;-88
2022/04/01 06:38:02;;;;;;;13.02;9.00;;;0.30;99.90;;;;;;5033226;28;20057;-88
2022/04/01 06:40:54;;;;;;;16.95;9.85;;;0.30;99.90;;;;;;5032962;28;20395;-88
2022/04/01 06:43:22;;;;;;;15.57;10.32;;;0.30;99.90;;;;;;5032733;28;20087;-88
2022/04/01 06:45:49;;;;;;;19.13;11.35;;;0.20;99.90;;;;;;5032856;28;20145;-88
2022/04/01 06:48:16;;;;;;;16.30;11.00;;;0.20;99.90;;;;;;5032855;28;20045;-88
2022/04/01 06:50:49;;;;;;;15.82;11.90;;;0.30;99.90;;;;;;5033790;28;20053;-89
2022/04/01 06:53:17;;;;;;;21.45;12.02;;;0.30;99.90;;;;;;5033814;28;20055;-89
2022/04/01 06:55:44;;;;;;;18.63;11.75;;;0.30;99.90;;;;;;5032725;28;20065;-89
2022/04/01 06:58:11;;;;;;;19.00;13.95;;;0.30;99.90;;;;;;5032789;28;20473;-88
2022/04/01 07:00:43;;;;;;;20.67;13.02;;;0.30;99.90;;;;;;5033154;28;20073;-89
2022/04/01 07:03:10;;;;;;;23.40;12.98;;;0.30;99.90;;;;;;5033908;28;20041;-89
2022/04/01 07:05:39;;;;;;;15.88;12.15;;;0.30;99.90;;;;;;5032745;28;20053;-89
2022/04/01 07:08:06;;;;;;;17.33;12.77;;;0.30;99.90;;;;;;5033522;28;20137;-88
2022/04/01 07:10:34;;;;;;;16.52;12.82;;;0.30;99.90;;;;;;5033640;28;20049;-88
2022/04/01 07:13:01;;;;;;;22.35;14.05;;;0.20;99.90;;;;;;5033622;28;20096;-89
2022/04/01 07:15:27;;;;;;;17.23;13.60;;;0.30;99.90;;;;;;5032698;28;20103;-90
2022/04/01 07:17:55;;;;;;;22.40;13.63;;;0.30;99.90;;;;;;5033996;28;20049;-89
2022/04/01 07:20:21;;;;;;;24.75;17.42;;;0.30;99.90;;;;;;5032778;28;20056;-88
2022/04/01 07:22:51;;;;;;;22.95;16.90;;;0.20;99.90;;;;;;5033460;28;20053;-89
2022/04/01 07:25:21;;;;;;;18.35;13.77;;;0.30;99.90;;;;;;5032586;28;20148;-89
2022/04/01 07:27:48;;;;;;;18.33;13.35;;;0.30;99.90;;;;;;5033910;28;20555;-89
2022/04/01 07:30:15;;;;;;;18.45;13.88;;;0.40;99.90;;;;;;5033564;28;20061;-88
2022/04/01 07:32:42;;;;;;;23.27;15.65;;;0.40;99.90;;;;;;5032365;28;20145;-89
2022/04/01 07:35:12;;;;;;;18.27;14.27;;;0.40;99.90;;;;;;5033999;28;20099;-89
2022/04/01 07:37:39;;;;;;;17.00;13.77;;;0.40;99.90;;;;;;5046036;28;20396;-90
2022/04/01 07:40:25;;;;;;;18.60;14.45;;;0.40;99.90;;;;;;5035435;28;20480;-88
2022/04/01 07:42:53;;;;;;;19.67;15.00;;;0.40;99.90;;;;;;5033184;28;20091;-89
2022/04/01 07:45:20;;;;;;;23.20;12.57;;;0.40;99.90;;;;;;5032513;28;20049;-88
2022/04/01 07:47:49;;;;;;;17.88;12.63;;;0.50;99.90;;;;;;5036150;28;20157;-88
2022/04/01 07:50:17;;;;;;;16.73;13.52;;;0.40;99.90;;;;;;5035990;28;20558;-89
2022/04/01 07:52:45;;;;;;;20.38;13.20;;;0.40;99.90;;;;;;5035982;28;20148;-87
2022/04/01 07:55:13;;;;;;;18.10;13.80;;;0.40;99.90;;;;;;5036073;28;20140;-88
2022/04/01 07:57:45;;;;;;;19.73;13.68;;;0.40;99.90;;;;;;5035905;28;20072;-89
2022/04/01 08:00:15;;;;;;;20.73;15.77;;;0.50;99.90;;;;;;5037028;28;20045;-88
2022/04/01 08:02:42;;;;;;;19.05;15.57;;;0.40;99.90;;;;;;5036667;28;20091;-89
2022/04/01 08:05:09;;;;;;;19.90;15.88;;;0.50;99.90;;;;;;5035793;28;20042;-89
2022/04/01 08:07:36;;;;;;;20.17;15.25;;;0.60;99.90;;;;;;5035532;28;20099;-88
2022/04/01 08:10:05;;;;;;;22.95;14.88;;;0.60;99.90;;;;;;5035674;28;20512;-89
2022/04/01 08:12:39;;;;;;;21.52;16.80;;;0.70;99.90;;;;;;5036446;28;20096;-89
2022/04/01 08:15:07;;;;;;;20.42;15.55;;;0.70;99.90;;;;;;5035740;28;20193;-88
2022/04/01 08:17:34;;;;;;;24.38;14.70;;;0.70;99.90;;;;;;5036080;28;20053;-89
2022/04/01 08:20:04;;;;;;;19.75;15.35;;;0.80;99.90;;;;;;5036804;28;20046;-89
2022/04/01 08:22:31;;;;;;;16.17;14.05;;;0.70;99.90;;;;;;5035586;28;20049;-88
2022/04/01 08:24:57;;;;;;;23.23;13.20;;;0.70;99.90;;;;;;5035243;28;20145;-88
2022/04/01 08:27:24;;;;;;;22.23;13.27;;;0.80;99.90;;;;;;5035311;28;20053;-89
2022/04/01 08:29:55;;;;;;;20.45;11.23;;;0.70;99.90;;;;;;5035303;28;20049;-89
2022/04/01 08:32:22;;;;;;;17.05;11.45;;;0.60;99.90;;;;;;5036230;28;20049;-89
2022/04/01 08:34:49;;;;;;;15.35;11.52;;;0.60;99.90;;;;;;5035452;28;20045;-89
2022/04/01 08:37:16;;;;;;;16.17;11.02;;;0.70;99.90;;;;;;5035241;28;20123;-89
2022/04/01 08:39:49;;;;;;;15.52;12.23;;;0.70;99.90;;;;;;5036136;28;20401;-89
2022/04/01 08:42:16;;;;;;;16.10;11.13;;;0.70;99.90;;;;;;5035094;28;20087;-88
2022/04/01 08:44:49;;;;;;;22.40;15.35;;;0.60;99.90;;;;;;5035280;28;20087;-89
2022/04/01 08:47:16;;;;;;;17.38;13.40;;;0.60;99.90;;;;;;5035236;28;20076;-89
2022/04/01 08:49:43;;;;;;;18.40;13.48;;;0.60;99.90;;;;;;5036069;28;20065;-89
2022/04/01 08:52:10;;;;;;;19.08;14.40;;;0.60;99.90;;;;;;5050528;28;20040;-90
2022/04/01 08:54:37;;;;;;;23.40;15.95;;;0.50;99.90;;;;;;5039026;28;20478;-90
2022/04/01 08:57:05;;;;;;;23.42;17.05;;;0.50;99.90;;;;;;5034644;28;20091;-90
2022/04/01 08:59:32;;;;;;;23.00;17.23;;;0.50;99.90;;;;;;5034840;28;20089;-90
2022/04/01 09:02:10;;;;;;;24.23;18.33;;;0.60;99.90;;;;;;5035781;28;20124;-89
2022/04/01 09:04:37;;;;;;;22.40;17.50;;;0.50;99.90;;;;;;5036138;28;20084;-90
2022/04/01 09:07:13;;;;;;;24.90;19.27;;;0.60;99.90;;;;;;5035073;28;20049;-90
2022/04/01 09:09:40;;;;;;;24.02;18.75;;;0.70;99.90;;;;;;5034901;28;20049;-89
2022/04/01 09:12:16;;;;;;;29.70;20.10;;;0.80;99.90;;;;;;5034719;28;20053;-90
2022/04/01 09:14:53;;;;;;;29.45;20.95;;;0.80;99.90;;;;;;5034928;28;20557;-90
2022/04/01 09:17:20;;;;;;;31.58;22.35;;;0.90;99.90;;;;;;5034594;28;20140;-90
2022/04/01 09:20:01;;;;;;;28.00;22.15;;;0.80;99.90;;;;;;5035611;28;20132;-90
2022/04/01 09:22:28;;;;;;;28.23;21.20;;;0.80;99.90;;;;;;5035482;28;20049;-90
2022/04/01 09:25:05;;;;;;;30.17;23.35;;;0.90;99.90;;;;;;5035487;28;20541;-90
2022/04/01 09:27:40;;;;;;;28.88;22.60;;;0.80;99.90;;;;;;5035232;28;20124;-89
2022/04/01 09:30:13;;;;;;;30.25;23.80;;;0.70;99.90;;;;;;5035233;28;20045;-90
2022/04/01 09:32:46;;;;;;;28.95;22.10;;;0.70;99.90;;;;;;5034720;28;20053;-91
2022/04/01 09:35:14;;;;;;;28.33;21.83;;;0.70;99.90;;;;;;5035643;28;20057;-90
2022/04/01 09:37:47;;;;;;;30.92;19.95;;;0.70;99.90;;;;;;5035595;28;20077;-90
2022/04/01 09:40:18;;;;;;;27.25;20.95;;;0.60;99.90;;;;;;5032344;28;20080;-91
2022/04/01 09:42:48;;;;;;;29.40;21.48;;;0.60;99.90;;;;;;5024465;28;20133;-91
2022/04/01 09:45:20;;;;;;;28.98;22.17;;;0.60;99.90;;;;;;5031884;28;20061;-92
2022/04/01 09:48:01;;;;;;;30.70;21.53;;;0.70;99.90;;;;;;5035235;28;20103;-90
2022/04/01 09:50:39;;;;;;;27.25;20.30;;;0.70;99.90;;;;;;5035003;28;20140;-90
2022/04/01 09:53:10;;;;;;;27.15;20.63;;;0.70;99.90;;;;;;5034961;28;20088;-90
2022/04/01 09:55:39;;;;;;;27.27;21.90;;;0.60;99.90;;;;;;5033413;28;20532;-90
2022/04/01 09:58:07;;;;;;;25.33;20.08;;;0.70;99.90;;;;;;5033293;28;20512;-91
2022/04/01 10:00:37;;;;;;;51.45;37.45;;;0.80;99.90;;;;;;5033751;28;20487;-91
2022/04/01 10:03:05;;;;;;;26.70;20.75;;;0.70;99.90;;;;;;5034594;28;20057;-91
2022/04/01 10:05:31;;;;;;;26.60;21.90;;;0.80;99.90;;;;;;5037208;28;20486;-90
2022/04/01 10:08:02;;;;;;;28.70;20.63;;;0.80;99.90;;;;;;5048229;28;20489;-90
2022/04/01 10:10:30;;;;;;;23.30;17.90;;;0.80;99.90;;;;;;5035994;28;20049;-90
2022/04/01 10:13:03;;;;;;;25.40;18.70;;;0.80;99.90;;;;;;5034667;28;20080;-90
2022/04/01 10:15:32;;;;;;;86.35;50.97;;;0.80;99.90;;;;;;5034466;28;20050;-90
2022/04/01 10:18:01;;;;;;;34.58;21.70;;;0.90;99.90;;;;;;5033484;28;20056;-92
2022/04/01 10:20:35;;;;;;;26.67;20.73;;;0.80;99.90;;;;;;5033274;28;20092;-90
2022/04/01 10:23:05;;;;;;;20.27;15.77;;;0.80;99.90;;;;;;5033113;28;20050;-89
2022/04/01 10:25:53;;;;;;;21.65;18.33;;;0.80;99.90;;;;;;5032954;28;20049;-89
2022/04/01 10:28:21;;;;;;;23.48;18.67;;;0.80;99.90;;;;;;5034117;28;20441;-89
2022/04/01 10:30:53;;;;;;;25.02;16.92;;;0.70;99.90;;;;;;5032920;28;20132;-89
2022/04/01 10:33:26;;;;;;;22.10;17.30;;;0.70;99.90;;;;;;5034167;28;20494;-89
2022/04/01 10:35:55;;;;;;;19.07;14.97;;;0.80;99.90;;;;;;5032863;28;20075;-90
2022/04/01 10:38:27;;;;;;;17.25;12.77;;;0.80;99.90;;;;;;5033620;28;20053;-89
2022/04/01 10:40:54;;;;;;;21.42;14.05;;;0.80;99.90;;;;;;5032933;28;20073;-89
2022/04/01 10:43:31;;;;;;;19.75;15.18;;;0.90;99.90;;;;;;5033636;28;20091;-89
2022/04/01 10:46:02;;;;;;;18.35;13.02;;;0.90;99.90;;;;;;5030363;28;20100;-89
2022/04/01 10:51:36;;;;;;;17.83;14.85;;;0.90;99.90;;;;;;5033825;28;20089;-89
2022/04/01 10:54:06;;;;;;;17.95;14.95;;;0.90;99.90;;;;;;5032797;28;20513;-90
2022/04/01 10:56:35;;;;;;;16.08;13.30;;;0.80;99.90;;;;;;5032819;28;20049;-90
2022/04/01 10:59:05;;;;;;;18.60;14.23;;;0.90;99.90;;;;;;5032691;28;20103;-90
2022/04/01 11:01:34;;;;;;;16.52;14.52;;;1.00;99.90;;;;;;5033697;28;20115;-94
2022/04/01 11:04:22;;;;;;;16.27;14.30;;;1.10;99.90;;;;;;5033117;28;20049;-90
2022/04/01 11:06:56;;;;;;;19.25;14.82;;;1.10;99.90;;;;;;5032948;28;20144;-90
2022/04/01 11:09:51;;;;;;;17.15;14.73;;;1.10;99.90;;;;;;5032756;28;20077;-90
2022/04/01 11:12:21;;;;;;;21.05;15.35;;;1.20;99.90;;;;;;5032602;28;20136;-88
2022/04/01 11:15:09;;;;;;;20.27;16.30;;;1.20;99.90;;;;;;5033903;28;20103;-89
2022/04/01 11:17:36;;;;;;;20.13;16.98;;;1.20;99.90;;;;;;5032697;28;20128;-89
2022/04/01 11:20:12;;;;;;;18.85;16.85;;;1.30;99.90;;;;;;5037316;28;20131;-89
2022/04/01 11:22:42;;;;;;;28.80;17.88;;;1.30;99.90;;;;;;5044801;28;20049;-88
2022/04/01 11:25:22;;;;;;;21.80;17.63;;;1.40;99.90;;;;;;5040282;28;20132;-88
2022/04/01 11:28:02;;;;;;;19.90;17.10;;;1.50;99.90;;;;;;5039223;28;20046;-90
2022/04/01 11:30:34;;;;;;;20.58;17.48;;;1.50;99.90;;;;;;5039230;28;20057;-89
2022/04/01 11:33:12;;;;;;;20.02;16.70;;;1.60;99.90;;;;;;5040180;28;20091;-89
2022/04/01 11:35:45;;;;;;;18.83;16.25;;;1.60;99.90;;;;;;5038782;28;20117;-91
2022/04/01 11:38:15;;;;;;;19.77;16.98;;;1.50;99.90;;;;;;5040042;28;20549;-88
2022/04/01 11:40:45;;;;;;;21.85;18.00;;;1.30;99.90;;;;;;5040881;28;20049;-88
2022/04/01 11:43:14;;;;;;;22.05;17.83;;;1.30;99.90;;;;;;5042850;28;20144;-89
2022/04/01 11:46:02;;;;;;;20.90;17.83;;;1.20;99.90;;;;;;5039727;28;20056;-89
2022/04/01 11:48:35;;;;;;;23.02;17.98;;;1.10;99.90;;;;;;5041818;28;20045;-89
2022/04/01 11:51:14;;;;;;;20.98;16.98;;;1.00;99.90;;;;;;5041151;28;20057;-89
2022/04/01 11:53:51;;;;;;;31.40;23.25;;;1.20;99.90;;;;;;5038689;28;20057;-88
2022/04/01 11:56:22;;;;;;;19.95;15.90;;;1.30;99.90;;;;;;5038817;28;20049;-88
2022/04/01 11:58:51;;;;;;;16.63;14.90;;;1.30;99.90;;;;;;5038973;28;20084;-86
2022/04/01 12:01:20;;;;;;;18.35;14.90;;;1.30;99.90;;;;;;5038427;28;20477;-89
2022/04/01 12:03:47;;;;;;;17.13;12.40;;;1.30;99.90;;;;;;5038471;28;20056;-88
2022/04/01 12:09:06;;;;;;;14.20;12.45;;;1.10;99.90;;;;;;5039757;28;20537;-88
2022/04/01 12:11:46;;;;;;;16.42;12.85;;;1.00;99.90;;;;;;5038349;28;20573;-87
2022/04/01 12:14:21;;;;;;;17.02;11.93;;;1.10;99.90;;;;;;5035914;28;20075;-89
2022/04/01 12:16:48;;;;;;;17.30;13.23;;;1.00;99.90;;;;;;5039705;28;20143;-88
2022/04/01 12:19:20;;;;;;;15.00;12.40;;;1.10;99.90;;;;;;5037521;28;20128;-90
2022/04/01 12:21:53;;;;;;;17.65;13.45;;;1.20;99.90;;;;;;5037850;28;20053;-88
2022/04/01 12:24:20;;;;;;;;;;;1.10;99.90;;;;;;5037253;28;20136;-89
2022/04/01 12:26:48;;;;;;;18.17;15.20;;;1.00;99.90;;;;;;5038979;28;19921;-88
2022/04/01 12:29:23;;;;;;;16.48;14.02;;;1.10;99.90;;;;;;5038506;28;20049;-88
2022/04/01 12:31:55;;;;;;;18.55;15.10;;;1.20;99.90;;;;;;5035465;28;20148;-88
2022/04/01 12:34:23;;;;;;;17.27;14.60;;;1.10;99.90;;;;;;5036367;28;20105;-87
2022/04/01 12:36:56;;;;;;;18.52;15.30;;;1.00;99.90;;;;;;5040539;28;20045;-88
2022/04/01 12:39:31;;;;;;;16.90;13.95;;;1.10;99.90;;;;;;5035101;28;20041;-90
2022/04/01 12:42:01;;;;;;;16.15;12.95;;;1.00;99.90;;;;;;5034730;28;20049;-88
2022/04/01 12:44:30;;;;;;;13.18;11.77;;;0.90;99.90;;;;;;5034786;28;20053;-88
2022/04/01 12:46:59;;;;;;;13.40;12.05;;;0.80;99.90;;;;;;5034857;28;20136;-88
2022/04/01 12:49:27;;;;;;;14.52;11.57;;;0.90;99.90;;;;;;5034135;28;20053;-88
2022/04/01 12:51:58;;;;;;;12.75;11.45;;;0.90;99.90;;;;;;5035607;28;20642;-89
2022/04/01 12:54:39;;;;;;;12.85;11.27;;;0.90;99.90;;;;;;5036677;28;20068;-88
2022/04/01 12:57:08;;;;;;;12.80;11.40;;;0.90;99.90;;;;;;5035120;28;20439;-88
2022/04/01 12:59:38;;;;;;;16.02;12.20;;;1.00;99.90;;;;;;5034382;28;20068;-88
2022/04/01 13:02:07;;;;;;;17.02;13.70;;;1.00;99.90;;;;;;5033875;28;20215;-87
2022/04/01 13:04:39;;;;;;;15.90;12.95;;;0.90;99.90;;;;;;5035102;28;20081;-88
2022/04/01 13:07:12;;;;;;;14.13;11.95;;;0.90;99.90;;;;;;5035936;28;20049;-87